Oasis of the Seas — C6XS7 — position and weather

sailwx.info

Track history (hours):
 
Tides and Currents Weather Stations Pressure Air Temp Water Temp Dewpoint Dewpoint Depression Visibility Wind Speed Wind Dir Waves Ship Positions

Oasis of the Seas

Last reported at 2014-Sep-16 04:30 UTC. Time now 2014-Sep-16 17:27 UTC.
Position N 40°50' E 014°16'.

Length 360 m; draft 9.3 m.

Type: Passenger vessel. MMSI: 311020600.

Date/timePositionNaut miles runAvg speedWind from/ knotsBaromVisibWave heightAir tempDewpointWater temp
2014-Sep-16 04:30N 40°50' E 014°16'9 9.2
2014-Sep-16 03:33N 40°42' E 014°11'1615.5
2014-Sep-16 02:33N 40°37' E 013°52'1919.0
2014-Sep-16 01:32N 40°39' E 013°26'418 8.7
2014-Sep-14 01:26N 41°17' E 004°15'5413.9
2014-Sep-13 21:34N 41°17' E 003°04'1313.4
2014-Sep-13 20:33N 41°18' E 002°46'1312.6
2014-Sep-13 19:32N 41°17' E 002°29'1312.8
2014-Sep-13 18:33N 41°16' E 002°12'15 0.8
2014-Sep-13 00:33N 41°03' E 002°02'1313.0
2014-Sep-12 23:33N 40°52' E 001°53'1413.7
2014-Sep-12 22:33N 40°39' E 001°48'1313.5
2014-Sep-12 21:33N 40°28' E 001°39'1414.0
2014-Sep-12 20:33N 40°15' E 001°31'1313.4
2014-Sep-12 19:33N 40°03' E 001°22'1615.6
2014-Sep-12 18:33N 39°49' E 001°13'3716.6
2014-Sep-12 16:21N 39°17' E 000°51'2916.1
2014-Sep-12 14:32N 38°51' E 000°34'1914.4
2014-Sep-12 13:12N 38°35' E 000°21'6116.8
2014-Sep-12 09:34N 37°44' W 000°22'1413.6
2014-Sep-12 08:33N 37°33' W 000°32'1313.3
2014-Sep-12 07:33N 37°24' W 000°45'1413.4
2014-Sep-12 06:29N 37°14' W 000°58'220 7.5
2014-Sep-11 01:04N 36°00' W 005°16'917.6
2014-Sep-11 00:33N 35°57' W 005°27'  
2014-Sep-08 19:21N 36°37' W 023°52'1316.8
2014-Sep-08 18:33N 36°38' W 024°08'1716.6
2014-Sep-08 17:33N 36°39' W 024°29'1615.9
2014-Sep-08 16:34N 36°40' W 024°49'1515.5
2014-Sep-08 15:33N 36°40' W 025°08'1615.8
2014-Sep-08 14:33N 36°41' W 025°28'1616.3
2014-Sep-08 13:33N 36°41' W 025°48'1716.5
2014-Sep-08 12:34N 36°42' W 026°09'1616.4
2014-Sep-08 11:33N 36°42' W 026°29'1616.3
2014-Sep-08 10:33N 36°43' W 026°49'  
Track history (hours):
 
Tides and Currents Weather Stations Pressure Air Temp Water Temp Dewpoint Dewpoint Depression Visibility Wind Speed Wind Dir Waves Ship Positions

Oasis of the Seas

Last reported at 2014-Sep-16 04:30 UTC. Time now 2014-Sep-16 17:27 UTC.
Position N 40°50' E 014°16'.

Length 360 m; draft 9.3 m.

Type: Passenger vessel. MMSI: 311020600.

Date/timePositionNaut miles runAvg speedWind from/ knotsBaromVisibWave heightAir tempDewpointWater temp
2014-Sep-16 04:30N 40°50' E 014°16'9 9.2
2014-Sep-16 03:33N 40°42' E 014°11'1615.5
2014-Sep-16 02:33N 40°37' E 013°52'1919.0
2014-Sep-16 01:32N 40°39' E 013°26'418 8.7
2014-Sep-14 01:26N 41°17' E 004°15'5413.9
2014-Sep-13 21:34N 41°17' E 003°04'1313.4
2014-Sep-13 20:33N 41°18' E 002°46'1312.6
2014-Sep-13 19:32N 41°17' E 002°29'1312.8
2014-Sep-13 18:33N 41°16' E 002°12'15 0.8
2014-Sep-13 00:33N 41°03' E 002°02'1313.0
2014-Sep-12 23:33N 40°52' E 001°53'1413.7
2014-Sep-12 22:33N 40°39' E 001°48'1313.5
2014-Sep-12 21:33N 40°28' E 001°39'1414.0
2014-Sep-12 20:33N 40°15' E 001°31'1313.4
2014-Sep-12 19:33N 40°03' E 001°22'1615.6
2014-Sep-12 18:33N 39°49' E 001°13'3716.6
2014-Sep-12 16:21N 39°17' E 000°51'2916.1
2014-Sep-12 14:32N 38°51' E 000°34'1914.4
2014-Sep-12 13:12N 38°35' E 000°21'6116.8
2014-Sep-12 09:34N 37°44' W 000°22'1413.6
2014-Sep-12 08:33N 37°33' W 000°32'1313.3
2014-Sep-12 07:33N 37°24' W 000°45'1413.4
2014-Sep-12 06:29N 37°14' W 000°58'220 7.5
2014-Sep-11 01:04N 36°00' W 005°16'917.6
2014-Sep-11 00:33N 35°57' W 005°27'  
2014-Sep-08 19:21N 36°37' W 023°52'1316.8
2014-Sep-08 18:33N 36°38' W 024°08'1716.6
2014-Sep-08 17:33N 36°39' W 024°29'1615.9
2014-Sep-08 16:34N 36°40' W 024°49'1515.5
2014-Sep-08 15:33N 36°40' W 025°08'1615.8
2014-Sep-08 14:33N 36°41' W 025°28'1616.3
2014-Sep-08 13:33N 36°41' W 025°48'1716.5
2014-Sep-08 12:34N 36°42' W 026°09'1616.4
2014-Sep-08 11:33N 36°42' W 026°29'1616.3
2014-Sep-08 10:33N 36°43' W 026°49'  

Dump ship's entire track history